sensor_id;sensor_type;location;lat;lon;timestamp;P1;durP1;ratioP1;P2;durP2;ratioP2
2099;SDS011;1055;48.854;9.302;2022-12-07T00:00:28;15.47;;;9.60;;
2099;SDS011;1055;48.854;9.302;2022-12-07T00:02:53;16.07;;;10.20;;
2099;SDS011;1055;48.854;9.302;2022-12-07T00:05:19;14.70;;;9.50;;
2099;SDS011;1055;48.854;9.302;2022-12-07T00:07:45;17.57;;;10.40;;
2099;SDS011;1055;48.854;9.302;2022-12-07T00:10:10;17.07;;;10.73;;
2099;SDS011;1055;48.854;9.302;2022-12-07T00:12:36;15.57;;;9.87;;
2099;SDS011;1055;48.854;9.302;2022-12-07T00:15:02;17.17;;;10.17;;
2099;SDS011;1055;48.854;9.302;2022-12-07T00:17:27;15.90;;;10.15;;
2099;SDS011;1055;48.854;9.302;2022-12-07T00:19:53;16.40;;;9.43;;
2099;SDS011;1055;48.854;9.302;2022-12-07T00:22:19;15.63;;;10.93;;
2099;SDS011;1055;48.854;9.302;2022-12-07T00:24:44;14.77;;;9.87;;
2099;SDS011;1055;48.854;9.302;2022-12-07T00:27:10;16.17;;;10.13;;
2099;SDS011;1055;48.854;9.302;2022-12-07T00:29:35;14.40;;;9.80;;
2099;SDS011;1055;48.854;9.302;2022-12-07T00:32:02;16.27;;;9.60;;
2099;SDS011;1055;48.854;9.302;2022-12-07T00:34:28;16.65;;;10.30;;
2099;SDS011;1055;48.854;9.302;2022-12-07T00:36:53;18.47;;;9.83;;
2099;SDS011;1055;48.854;9.302;2022-12-07T00:39:19;16.80;;;10.43;;
2099;SDS011;1055;48.854;9.302;2022-12-07T00:41:44;17.77;;;10.33;;
2099;SDS011;1055;48.854;9.302;2022-12-07T00:44:10;17.90;;;10.73;;
2099;SDS011;1055;48.854;9.302;2022-12-07T00:46:36;16.77;;;10.23;;
2099;SDS011;1055;48.854;9.302;2022-12-07T00:49:02;15.27;;;9.20;;
2099;SDS011;1055;48.854;9.302;2022-12-07T00:51:27;15.70;;;10.53;;
2099;SDS011;1055;48.854;9.302;2022-12-07T00:53:53;15.20;;;9.80;;
2099;SDS011;1055;48.854;9.302;2022-12-07T00:56:23;17.13;;;10.27;;
2099;SDS011;1055;48.854;9.302;2022-12-07T00:58:57;15.52;;;10.55;;
2099;SDS011;1055;48.854;9.302;2022-12-07T01:01:25;15.73;;;10.32;;
2099;SDS011;1055;48.854;9.302;2022-12-07T01:03:53;14.88;;;9.73;;
2099;SDS011;1055;48.854;9.302;2022-12-07T01:06:19;16.20;;;10.20;;
2099;SDS011;1055;48.854;9.302;2022-12-07T01:08:46;17.52;;;10.18;;
2099;SDS011;1055;48.854;9.302;2022-12-07T01:11:13;16.85;;;10.13;;
2099;SDS011;1055;48.854;9.302;2022-12-07T01:13:41;16.63;;;9.40;;
2099;SDS011;1055;48.854;9.302;2022-12-07T01:16:08;15.75;;;9.30;;
2099;SDS011;1055;48.854;9.302;2022-12-07T01:18:36;15.50;;;10.45;;
2099;SDS011;1055;48.854;9.302;2022-12-07T01:21:06;15.40;;;9.67;;
2099;SDS011;1055;48.854;9.302;2022-12-07T01:23:35;16.50;;;10.23;;
2099;SDS011;1055;48.854;9.302;2022-12-07T01:26:02;15.55;;;9.15;;
2099;SDS011;1055;48.854;9.302;2022-12-07T01:28:29;14.98;;;9.75;;
2099;SDS011;1055;48.854;9.302;2022-12-07T01:30:59;17.37;;;10.77;;
2099;SDS011;1055;48.854;9.302;2022-12-07T01:33:29;15.15;;;9.77;;
2099;SDS011;1055;48.854;9.302;2022-12-07T01:36:02;16.50;;;10.13;;
2099;SDS011;1055;48.854;9.302;2022-12-07T01:38:33;15.13;;;10.20;;
2099;SDS011;1055;48.854;9.302;2022-12-07T01:40:59;17.35;;;10.02;;
2099;SDS011;1055;48.854;9.302;2022-12-07T01:43:27;18.73;;;10.73;;
2099;SDS011;1055;48.854;9.302;2022-12-07T01:45:57;18.77;;;10.32;;
2099;SDS011;1055;48.854;9.302;2022-12-07T01:48:25;19.83;;;10.82;;
2099;SDS011;1055;48.854;9.302;2022-12-07T01:51:04;17.05;;;9.70;;
2099;SDS011;1055;48.854;9.302;2022-12-07T01:53:34;17.63;;;9.43;;
2099;SDS011;1055;48.854;9.302;2022-12-07T01:56:03;17.13;;;10.63;;
2099;SDS011;1055;48.854;9.302;2022-12-07T01:58:31;18.17;;;9.63;;
2099;SDS011;1055;48.854;9.302;2022-12-07T02:00:56;17.03;;;10.77;;
2099;SDS011;1055;48.854;9.302;2022-12-07T02:03:27;16.13;;;9.67;;
2099;SDS011;1055;48.854;9.302;2022-12-07T02:06:00;17.00;;;10.15;;
2099;SDS011;1055;48.854;9.302;2022-12-07T02:08:27;20.80;;;10.85;;
2099;SDS011;1055;48.854;9.302;2022-12-07T02:10:52;18.30;;;10.33;;
2099;SDS011;1055;48.854;9.302;2022-12-07T02:13:21;17.60;;;11.07;;
2099;SDS011;1055;48.854;9.302;2022-12-07T02:18:40;17.98;;;11.27;;
2099;SDS011;1055;48.854;9.302;2022-12-07T02:21:22;20.15;;;11.48;;
2099;SDS011;1055;48.854;9.302;2022-12-07T02:35:21;17.73;;;9.85;;
2099;SDS011;1055;48.854;9.302;2022-12-07T02:40:35;18.95;;;11.68;;
2099;SDS011;1055;48.854;9.302;2022-12-07T02:43:08;18.23;;;10.95;;
2099;SDS011;1055;48.854;9.302;2022-12-07T02:45:41;20.05;;;11.15;;
2099;SDS011;1055;48.854;9.302;2022-12-07T02:48:09;20.05;;;11.15;;
2099;SDS011;1055;48.854;9.302;2022-12-07T02:50:38;18.40;;;11.35;;
2099;SDS011;1055;48.854;9.302;2022-12-07T02:53:04;18.60;;;10.70;;
2099;SDS011;1055;48.854;9.302;2022-12-07T02:55:34;17.13;;;10.90;;
2099;SDS011;1055;48.854;9.302;2022-12-07T03:00:37;18.73;;;11.70;;
2099;SDS011;1055;48.854;9.302;2022-12-07T03:03:15;17.70;;;11.15;;
2099;SDS011;1055;48.854;9.302;2022-12-07T03:08:44;17.83;;;9.90;;
2099;SDS011;1055;48.854;9.302;2022-12-07T03:11:23;17.40;;;10.70;;
2099;SDS011;1055;48.854;9.302;2022-12-07T03:17:12;17.92;;;10.57;;
2099;SDS011;1055;48.854;9.302;2022-12-07T03:19:20;18.05;;;10.45;;
2099;SDS011;1055;48.854;9.302;2022-12-07T03:21:50;18.17;;;10.45;;
2099;SDS011;1055;48.854;9.302;2022-12-07T03:24:39;17.55;;;10.95;;
2099;SDS011;1055;48.854;9.302;2022-12-07T03:27:16;16.92;;;11.43;;
2099;SDS011;1055;48.854;9.302;2022-12-07T03:29:46;18.80;;;10.90;;
2099;SDS011;1055;48.854;9.302;2022-12-07T03:32:19;18.50;;;11.25;;
2099;SDS011;1055;48.854;9.302;2022-12-07T03:34:58;19.25;;;10.15;;
2099;SDS011;1055;48.854;9.302;2022-12-07T03:40:25;18.73;;;10.77;;
2099;SDS011;1055;48.854;9.302;2022-12-07T03:42:55;17.30;;;10.77;;
2099;SDS011;1055;48.854;9.302;2022-12-07T03:45:26;16.15;;;9.98;;
2099;SDS011;1055;48.854;9.302;2022-12-07T03:50:48;17.40;;;9.85;;
2099;SDS011;1055;48.854;9.302;2022-12-07T03:53:29;17.23;;;10.30;;
2099;SDS011;1055;48.854;9.302;2022-12-07T03:56:21;20.77;;;11.65;;
2099;SDS011;1055;48.854;9.302;2022-12-07T03:58:48;19.08;;;11.02;;
2099;SDS011;1055;48.854;9.302;2022-12-07T04:01:14;19.23;;;11.75;;
2099;SDS011;1055;48.854;9.302;2022-12-07T04:03:40;17.97;;;10.80;;
2099;SDS011;1055;48.854;9.302;2022-12-07T04:06:05;19.23;;;12.20;;
2099;SDS011;1055;48.854;9.302;2022-12-07T04:08:31;18.07;;;9.57;;
2099;SDS011;1055;48.854;9.302;2022-12-07T04:10:57;21.23;;;11.37;;
2099;SDS011;1055;48.854;9.302;2022-12-07T04:13:22;18.00;;;10.73;;
2099;SDS011;1055;48.854;9.302;2022-12-07T04:15:48;21.80;;;12.90;;
2099;SDS011;1055;48.854;9.302;2022-12-07T04:18:14;17.90;;;11.83;;
2099;SDS011;1055;48.854;9.302;2022-12-07T04:20:39;26.23;;;13.30;;
2099;SDS011;1055;48.854;9.302;2022-12-07T04:23:05;22.00;;;14.03;;
2099;SDS011;1055;48.854;9.302;2022-12-07T04:25:30;23.43;;;12.53;;
2099;SDS011;1055;48.854;9.302;2022-12-07T04:27:56;24.13;;;13.20;;
2099;SDS011;1055;48.854;9.302;2022-12-07T04:30:21;24.40;;;14.20;;
2099;SDS011;1055;48.854;9.302;2022-12-07T04:32:47;27.63;;;13.33;;
2099;SDS011;1055;48.854;9.302;2022-12-07T04:35:12;23.97;;;12.90;;
2099;SDS011;1055;48.854;9.302;2022-12-07T04:37:38;24.70;;;12.93;;
2099;SDS011;1055;48.854;9.302;2022-12-07T04:40:05;20.27;;;12.05;;
2099;SDS011;1055;48.854;9.302;2022-12-07T04:42:32;22.88;;;12.98;;
2099;SDS011;1055;48.854;9.302;2022-12-07T04:44:58;21.50;;;13.70;;
2099;SDS011;1055;48.854;9.302;2022-12-07T04:47:24;22.27;;;12.30;;
2099;SDS011;1055;48.854;9.302;2022-12-07T04:49:49;25.00;;;12.33;;
2099;SDS011;1055;48.854;9.302;2022-12-07T04:52:15;21.33;;;11.90;;
2099;SDS011;1055;48.854;9.302;2022-12-07T04:54:40;23.10;;;13.97;;
2099;SDS011;1055;48.854;9.302;2022-12-07T04:57:06;20.93;;;11.47;;
2099;SDS011;1055;48.854;9.302;2022-12-07T04:59:31;22.80;;;12.30;;
2099;SDS011;1055;48.854;9.302;2022-12-07T05:01:57;20.73;;;11.57;;
2099;SDS011;1055;48.854;9.302;2022-12-07T05:04:23;23.63;;;12.30;;
2099;SDS011;1055;48.854;9.302;2022-12-07T05:06:48;21.20;;;11.70;;
2099;SDS011;1055;48.854;9.302;2022-12-07T05:09:14;40.80;;;15.60;;
2099;SDS011;1055;48.854;9.302;2022-12-07T05:11:39;25.07;;;13.03;;
2099;SDS011;1055;48.854;9.302;2022-12-07T05:16:42;22.25;;;12.45;;
2099;SDS011;1055;48.854;9.302;2022-12-07T05:19:09;21.92;;;13.23;;
2099;SDS011;1055;48.854;9.302;2022-12-07T05:21:35;24.05;;;13.57;;
2099;SDS011;1055;48.854;9.302;2022-12-07T05:24:02;21.13;;;11.70;;
2099;SDS011;1055;48.854;9.302;2022-12-07T05:26:28;18.15;;;10.68;;
2099;SDS011;1055;48.854;9.302;2022-12-07T05:28:54;20.90;;;11.63;;
2099;SDS011;1055;48.854;9.302;2022-12-07T05:31:20;19.67;;;11.27;;
2099;SDS011;1055;48.854;9.302;2022-12-07T05:33:47;20.55;;;11.02;;
2099;SDS011;1055;48.854;9.302;2022-12-07T05:36:12;17.87;;;10.43;;
2099;SDS011;1055;48.854;9.302;2022-12-07T05:38:38;19.47;;;10.67;;
2099;SDS011;1055;48.854;9.302;2022-12-07T05:41:04;19.40;;;11.00;;
2099;SDS011;1055;48.854;9.302;2022-12-07T05:43:31;19.00;;;10.50;;
2099;SDS011;1055;48.854;9.302;2022-12-07T05:45:58;17.92;;;10.00;;
2099;SDS011;1055;48.854;9.302;2022-12-07T05:48:24;17.98;;;10.13;;
2099;SDS011;1055;48.854;9.302;2022-12-07T05:50:50;20.02;;;11.00;;
2099;SDS011;1055;48.854;9.302;2022-12-07T05:53:16;21.25;;;11.25;;
2099;SDS011;1055;48.854;9.302;2022-12-07T05:55:43;19.70;;;11.82;;
2099;SDS011;1055;48.854;9.302;2022-12-07T05:58:09;19.52;;;11.00;;
2099;SDS011;1055;48.854;9.302;2022-12-07T06:00:56;21.08;;;10.88;;
2099;SDS011;1055;48.854;9.302;2022-12-07T06:03:22;17.17;;;10.55;;
2099;SDS011;1055;48.854;9.302;2022-12-07T06:05:48;16.80;;;10.77;;
2099;SDS011;1055;48.854;9.302;2022-12-07T06:08:14;17.53;;;10.83;;
2099;SDS011;1055;48.854;9.302;2022-12-07T06:10:40;15.82;;;9.57;;
2099;SDS011;1055;48.854;9.302;2022-12-07T06:13:07;17.20;;;10.85;;
2099;SDS011;1055;48.854;9.302;2022-12-07T06:15:35;17.98;;;10.10;;
2099;SDS011;1055;48.854;9.302;2022-12-07T06:18:01;20.08;;;11.98;;
2099;SDS011;1055;48.854;9.302;2022-12-07T06:20:27;20.03;;;12.07;;
2099;SDS011;1055;48.854;9.302;2022-12-07T06:22:53;20.70;;;11.23;;
2099;SDS011;1055;48.854;9.302;2022-12-07T06:25:18;20.03;;;12.20;;
2099;SDS011;1055;48.854;9.302;2022-12-07T06:27:44;21.07;;;11.90;;
2099;SDS011;1055;48.854;9.302;2022-12-07T06:30:10;20.00;;;13.53;;
2099;SDS011;1055;48.854;9.302;2022-12-07T06:32:36;21.17;;;13.32;;
2099;SDS011;1055;48.854;9.302;2022-12-07T06:35:02;21.70;;;13.93;;
2099;SDS011;1055;48.854;9.302;2022-12-07T06:37:28;25.88;;;13.82;;
2099;SDS011;1055;48.854;9.302;2022-12-07T06:39:54;27.13;;;15.60;;
2099;SDS011;1055;48.854;9.302;2022-12-07T06:42:20;23.97;;;14.00;;
2099;SDS011;1055;48.854;9.302;2022-12-07T06:44:46;25.65;;;14.27;;
2099;SDS011;1055;48.854;9.302;2022-12-07T06:47:12;23.10;;;14.15;;
2099;SDS011;1055;48.854;9.302;2022-12-07T06:49:38;22.70;;;12.93;;
2099;SDS011;1055;48.854;9.302;2022-12-07T06:52:04;21.77;;;13.40;;
2099;SDS011;1055;48.854;9.302;2022-12-07T06:54:30;19.98;;;11.95;;
2099;SDS011;1055;48.854;9.302;2022-12-07T06:56:56;20.90;;;11.40;;
2099;SDS011;1055;48.854;9.302;2022-12-07T06:59:22;21.90;;;12.87;;
2099;SDS011;1055;48.854;9.302;2022-12-07T07:01:47;25.83;;;14.80;;
2099;SDS011;1055;48.854;9.302;2022-12-07T07:04:13;22.53;;;12.57;;
2099;SDS011;1055;48.854;9.302;2022-12-07T07:06:39;23.53;;;13.93;;
2099;SDS011;1055;48.854;9.302;2022-12-07T07:09:04;24.50;;;13.40;;
2099;SDS011;1055;48.854;9.302;2022-12-07T07:11:30;21.77;;;13.00;;
2099;SDS011;1055;48.854;9.302;2022-12-07T07:13:55;22.40;;;13.73;;
2099;SDS011;1055;48.854;9.302;2022-12-07T07:16:24;20.88;;;12.98;;
2099;SDS011;1055;48.854;9.302;2022-12-07T07:18:49;22.57;;;13.50;;
2099;SDS011;1055;48.854;9.302;2022-12-07T07:21:15;24.47;;;12.40;;
2099;SDS011;1055;48.854;9.302;2022-12-07T07:23:41;19.80;;;11.07;;
2099;SDS011;1055;48.854;9.302;2022-12-07T07:26:06;18.30;;;11.47;;
2099;SDS011;1055;48.854;9.302;2022-12-07T07:28:32;22.80;;;13.27;;
2099;SDS011;1055;48.854;9.302;2022-12-07T07:30:58;22.53;;;12.70;;
2099;SDS011;1055;48.854;9.302;2022-12-07T07:33:23;22.73;;;12.53;;
2099;SDS011;1055;48.854;9.302;2022-12-07T07:35:49;20.90;;;12.27;;
2099;SDS011;1055;48.854;9.302;2022-12-07T07:38:14;19.60;;;11.80;;
2099;SDS011;1055;48.854;9.302;2022-12-07T07:40:40;21.20;;;12.70;;
2099;SDS011;1055;48.854;9.302;2022-12-07T07:43:06;30.10;;;17.70;;
2099;SDS011;1055;48.854;9.302;2022-12-07T07:45:31;29.70;;;17.07;;
2099;SDS011;1055;48.854;9.302;2022-12-07T07:47:57;30.27;;;18.00;;
2099;SDS011;1055;48.854;9.302;2022-12-07T07:50:23;27.60;;;16.43;;
2099;SDS011;1055;48.854;9.302;2022-12-07T07:52:49;27.63;;;17.00;;
2099;SDS011;1055;48.854;9.302;2022-12-07T07:55:15;29.00;;;17.27;;
2099;SDS011;1055;48.854;9.302;2022-12-07T07:57:41;24.75;;;17.23;;
2099;SDS011;1055;48.854;9.302;2022-12-07T08:00:07;22.90;;;13.70;;
2099;SDS011;1055;48.854;9.302;2022-12-07T08:02:35;25.60;;;13.63;;
2099;SDS011;1055;48.854;9.302;2022-12-07T08:05:00;25.47;;;13.20;;
2099;SDS011;1055;48.854;9.302;2022-12-07T08:07:26;22.60;;;11.80;;
2099;SDS011;1055;48.854;9.302;2022-12-07T08:09:53;25.80;;;12.85;;
2099;SDS011;1055;48.854;9.302;2022-12-07T08:12:18;25.77;;;13.20;;
2099;SDS011;1055;48.854;9.302;2022-12-07T08:14:44;21.73;;;11.40;;
2099;SDS011;1055;48.854;9.302;2022-12-07T08:17:09;19.97;;;11.93;;
2099;SDS011;1055;48.854;9.302;2022-12-07T08:19:35;20.53;;;11.27;;
2099;SDS011;1055;48.854;9.302;2022-12-07T08:22:01;17.67;;;10.80;;
2099;SDS011;1055;48.854;9.302;2022-12-07T08:24:27;23.67;;;10.80;;
2099;SDS011;1055;48.854;9.302;2022-12-07T08:26:52;21.43;;;11.03;;
2099;SDS011;1055;48.854;9.302;2022-12-07T08:29:18;25.70;;;12.40;;
2099;SDS011;1055;48.854;9.302;2022-12-07T08:31:44;23.37;;;13.60;;
2099;SDS011;1055;48.854;9.302;2022-12-07T08:34:10;20.67;;;12.00;;
2099;SDS011;1055;48.854;9.302;2022-12-07T08:36:36;21.08;;;10.93;;
2099;SDS011;1055;48.854;9.302;2022-12-07T08:39:02;24.80;;;14.07;;
2099;SDS011;1055;48.854;9.302;2022-12-07T08:41:28;29.75;;;17.85;;
2099;SDS011;1055;48.854;9.302;2022-12-07T08:43:54;18.37;;;10.50;;
2099;SDS011;1055;48.854;9.302;2022-12-07T08:49:09;20.17;;;10.82;;
2099;SDS011;1055;48.854;9.302;2022-12-07T08:51:49;18.13;;;11.38;;
2099;SDS011;1055;48.854;9.302;2022-12-07T08:54:16;18.37;;;9.50;;
2099;SDS011;1055;48.854;9.302;2022-12-07T08:56:44;14.90;;;8.43;;
2099;SDS011;1055;48.854;9.302;2022-12-07T08:59:12;13.70;;;7.75;;
2099;SDS011;1055;48.854;9.302;2022-12-07T09:01:39;13.70;;;8.07;;
2099;SDS011;1055;48.854;9.302;2022-12-07T09:04:05;15.47;;;8.90;;
2099;SDS011;1055;48.854;9.302;2022-12-07T09:06:30;15.57;;;8.27;;
2099;SDS011;1055;48.854;9.302;2022-12-07T09:08:57;14.93;;;7.67;;
2099;SDS011;1055;48.854;9.302;2022-12-07T09:11:24;14.45;;;7.63;;
2099;SDS011;1055;48.854;9.302;2022-12-07T09:13:50;14.10;;;7.30;;
2099;SDS011;1055;48.854;9.302;2022-12-07T09:16:15;14.67;;;7.90;;
2099;SDS011;1055;48.854;9.302;2022-12-07T09:18:41;12.23;;;6.90;;
2099;SDS011;1055;48.854;9.302;2022-12-07T09:21:07;13.27;;;7.13;;
2099;SDS011;1055;48.854;9.302;2022-12-07T09:23:32;14.80;;;6.20;;
2099;SDS011;1055;48.854;9.302;2022-12-07T09:25:59;11.90;;;6.93;;
2099;SDS011;1055;48.854;9.302;2022-12-07T09:28:25;13.15;;;6.07;;
2099;SDS011;1055;48.854;9.302;2022-12-07T09:30:51;11.77;;;6.33;;
2099;SDS011;1055;48.854;9.302;2022-12-07T09:33:17;12.83;;;6.50;;
2099;SDS011;1055;48.854;9.302;2022-12-07T09:35:49;16.50;;;6.20;;
2099;SDS011;1055;48.854;9.302;2022-12-07T09:38:16;12.85;;;5.88;;
2099;SDS011;1055;48.854;9.302;2022-12-07T09:40:43;13.80;;;6.72;;
2099;SDS011;1055;48.854;9.302;2022-12-07T09:43:16;10.80;;;5.70;;
2099;SDS011;1055;48.854;9.302;2022-12-07T09:45:47;10.45;;;5.60;;
2099;SDS011;1055;48.854;9.302;2022-12-07T09:48:16;10.27;;;5.38;;
2099;SDS011;1055;48.854;9.302;2022-12-07T09:50:44;11.77;;;5.55;;
2099;SDS011;1055;48.854;9.302;2022-12-07T09:53:16;11.55;;;5.50;;
2099;SDS011;1055;48.854;9.302;2022-12-07T09:55:50;11.35;;;5.88;;
2099;SDS011;1055;48.854;9.302;2022-12-07T09:58:26;12.18;;;5.10;;
2099;SDS011;1055;48.854;9.302;2022-12-07T10:00:55;9.93;;;5.20;;
2099;SDS011;1055;48.854;9.302;2022-12-07T10:03:25;9.35;;;5.10;;
2099;SDS011;1055;48.854;9.302;2022-12-07T10:05:52;11.20;;;5.90;;
2099;SDS011;1055;48.854;9.302;2022-12-07T10:08:18;11.27;;;5.70;;
2099;SDS011;1055;48.854;9.302;2022-12-07T10:10:45;9.02;;;4.63;;
2099;SDS011;1055;48.854;9.302;2022-12-07T10:13:14;9.52;;;5.18;;
2099;SDS011;1055;48.854;9.302;2022-12-07T10:15:51;10.68;;;4.80;;
2099;SDS011;1055;48.854;9.302;2022-12-07T10:18:31;9.30;;;4.43;;
2099;SDS011;1055;48.854;9.302;2022-12-07T10:21:16;11.20;;;4.95;;
2099;SDS011;1055;48.854;9.302;2022-12-07T10:24:03;8.45;;;4.55;;
2099;SDS011;1055;48.854;9.302;2022-12-07T10:26:34;10.57;;;4.90;;
2099;SDS011;1055;48.854;9.302;2022-12-07T10:29:19;10.02;;;4.53;;
2099;SDS011;1055;48.854;9.302;2022-12-07T10:31:59;9.90;;;3.97;;
2099;SDS011;1055;48.854;9.302;2022-12-07T10:34:35;9.60;;;4.28;;
2099;SDS011;1055;48.854;9.302;2022-12-07T10:39:47;9.68;;;3.90;;
2099;SDS011;1055;48.854;9.302;2022-12-07T10:42:27;9.80;;;4.55;;
2099;SDS011;1055;48.854;9.302;2022-12-07T10:45:07;10.18;;;5.25;;
2099;SDS011;1055;48.854;9.302;2022-12-07T10:58:57;11.73;;;4.80;;
2099;SDS011;1055;48.854;9.302;2022-12-07T11:10:08;9.32;;;4.93;;
2099;SDS011;1055;48.854;9.302;2022-12-07T11:18:06;8.75;;;4.43;;
2099;SDS011;1055;48.854;9.302;2022-12-07T11:21:06;10.15;;;4.80;;
2099;SDS011;1055;48.854;9.302;2022-12-07T11:23:44;9.43;;;4.70;;
2099;SDS011;1055;48.854;9.302;2022-12-07T11:35:08;10.68;;;5.35;;
2099;SDS011;1055;48.854;9.302;2022-12-07T11:37:45;11.32;;;5.00;;
2099;SDS011;1055;48.854;9.302;2022-12-07T11:40:17;10.15;;;4.90;;
2099;SDS011;1055;48.854;9.302;2022-12-07T11:45:35;10.68;;;5.63;;
2099;SDS011;1055;48.854;9.302;2022-12-07T11:48:09;9.80;;;5.53;;
2099;SDS011;1055;48.854;9.302;2022-12-07T11:50:54;11.35;;;5.38;;
2099;SDS011;1055;48.854;9.302;2022-12-07T11:53:33;10.88;;;5.55;;
2099;SDS011;1055;48.854;9.302;2022-12-07T11:56:07;11.57;;;6.05;;
2099;SDS011;1055;48.854;9.302;2022-12-07T12:06:57;13.15;;;6.47;;
2099;SDS011;1055;48.854;9.302;2022-12-07T12:14:40;15.50;;;8.05;;
2099;SDS011;1055;48.854;9.302;2022-12-07T12:20:00;12.07;;;6.68;;
2099;SDS011;1055;48.854;9.302;2022-12-07T12:22:55;13.30;;;7.25;;
2099;SDS011;1055;48.854;9.302;2022-12-07T12:25:45;12.75;;;6.50;;
2099;SDS011;1055;48.854;9.302;2022-12-07T12:31:07;17.38;;;8.80;;
2099;SDS011;1055;48.854;9.302;2022-12-07T12:33:42;16.15;;;7.85;;
2099;SDS011;1055;48.854;9.302;2022-12-07T12:44:38;16.10;;;8.45;;
2099;SDS011;1055;48.854;9.302;2022-12-07T12:46:58;13.02;;;7.00;;
2099;SDS011;1055;48.854;9.302;2022-12-07T12:59:31;14.90;;;7.85;;
2099;SDS011;1055;48.854;9.302;2022-12-07T13:04:40;14.40;;;8.48;;
2099;SDS011;1055;48.854;9.302;2022-12-07T13:07:13;13.57;;;7.53;;
2099;SDS011;1055;48.854;9.302;2022-12-07T13:15:39;13.40;;;8.27;;
2099;SDS011;1055;48.854;9.302;2022-12-07T13:26:17;14.48;;;7.40;;
2099;SDS011;1055;48.854;9.302;2022-12-07T13:28:49;13.82;;;8.38;;
2099;SDS011;1055;48.854;9.302;2022-12-07T13:34:04;13.05;;;7.28;;
2099;SDS011;1055;48.854;9.302;2022-12-07T13:36:50;16.25;;;8.80;;
2099;SDS011;1055;48.854;9.302;2022-12-07T13:39:18;16.88;;;8.70;;
2099;SDS011;1055;48.854;9.302;2022-12-07T13:41:52;13.77;;;7.53;;
2099;SDS011;1055;48.854;9.302;2022-12-07T13:44:22;16.27;;;9.20;;
2099;SDS011;1055;48.854;9.302;2022-12-07T13:49:49;23.85;;;18.17;;
2099;SDS011;1055;48.854;9.302;2022-12-07T13:54:48;20.20;;;10.20;;
2099;SDS011;1055;48.854;9.302;2022-12-07T13:57:20;19.17;;;9.43;;
2099;SDS011;1055;48.854;9.302;2022-12-07T13:59:47;17.08;;;9.68;;
2099;SDS011;1055;48.854;9.302;2022-12-07T14:02:26;16.35;;;9.30;;
2099;SDS011;1055;48.854;9.302;2022-12-07T14:05:15;16.50;;;9.38;;
2099;SDS011;1055;48.854;9.302;2022-12-07T14:07:55;17.02;;;9.90;;
2099;SDS011;1055;48.854;9.302;2022-12-07T14:10:27;17.52;;;10.70;;
2099;SDS011;1055;48.854;9.302;2022-12-07T14:12:54;14.85;;;8.90;;
2099;SDS011;1055;48.854;9.302;2022-12-07T14:15:22;16.17;;;9.93;;
2099;SDS011;1055;48.854;9.302;2022-12-07T14:17:55;16.42;;;9.23;;
2099;SDS011;1055;48.854;9.302;2022-12-07T14:20:29;19.05;;;10.55;;
2099;SDS011;1055;48.854;9.302;2022-12-07T14:22:56;16.02;;;9.65;;
2099;SDS011;1055;48.854;9.302;2022-12-07T14:25:25;18.70;;;10.37;;
2099;SDS011;1055;48.854;9.302;2022-12-07T14:27:55;18.10;;;11.43;;
2099;SDS011;1055;48.854;9.302;2022-12-07T14:30:27;17.98;;;10.45;;
2099;SDS011;1055;48.854;9.302;2022-12-07T14:33:01;17.60;;;10.10;;
2099;SDS011;1055;48.854;9.302;2022-12-07T14:35:28;17.30;;;9.65;;
2099;SDS011;1055;48.854;9.302;2022-12-07T14:37:56;18.58;;;11.10;;
2099;SDS011;1055;48.854;9.302;2022-12-07T14:40:23;19.70;;;10.73;;
2099;SDS011;1055;48.854;9.302;2022-12-07T14:45:28;18.88;;;9.10;;
2099;SDS011;1055;48.854;9.302;2022-12-07T14:47:54;18.07;;;10.23;;
2099;SDS011;1055;48.854;9.302;2022-12-07T14:50:20;17.30;;;10.87;;
2099;SDS011;1055;48.854;9.302;2022-12-07T14:52:47;19.13;;;10.43;;
2099;SDS011;1055;48.854;9.302;2022-12-07T14:55:19;17.77;;;9.70;;
2099;SDS011;1055;48.854;9.302;2022-12-07T14:57:48;19.20;;;10.95;;
2099;SDS011;1055;48.854;9.302;2022-12-07T15:00:14;19.53;;;11.17;;
2099;SDS011;1055;48.854;9.302;2022-12-07T15:02:42;20.23;;;11.85;;
2099;SDS011;1055;48.854;9.302;2022-12-07T15:05:11;19.50;;;10.90;;
2099;SDS011;1055;48.854;9.302;2022-12-07T15:07:38;21.13;;;11.50;;
2099;SDS011;1055;48.854;9.302;2022-12-07T15:10:04;20.63;;;11.60;;
2099;SDS011;1055;48.854;9.302;2022-12-07T15:12:30;21.83;;;10.65;;
2099;SDS011;1055;48.854;9.302;2022-12-07T15:14:56;17.37;;;10.53;;
2099;SDS011;1055;48.854;9.302;2022-12-07T15:17:21;17.80;;;10.97;;
2099;SDS011;1055;48.854;9.302;2022-12-07T15:19:47;18.23;;;10.00;;
2099;SDS011;1055;48.854;9.302;2022-12-07T15:22:13;17.60;;;10.63;;
2099;SDS011;1055;48.854;9.302;2022-12-07T15:24:38;18.67;;;10.23;;
2099;SDS011;1055;48.854;9.302;2022-12-07T15:27:04;15.43;;;9.23;;
2099;SDS011;1055;48.854;9.302;2022-12-07T15:29:30;15.80;;;9.00;;
2099;SDS011;1055;48.854;9.302;2022-12-07T15:31:55;15.47;;;8.03;;
2099;SDS011;1055;48.854;9.302;2022-12-07T15:34:22;14.87;;;8.70;;
2099;SDS011;1055;48.854;9.302;2022-12-07T15:36:49;15.57;;;8.02;;
2099;SDS011;1055;48.854;9.302;2022-12-07T15:39:15;15.80;;;9.40;;
2099;SDS011;1055;48.854;9.302;2022-12-07T15:41:41;18.13;;;9.67;;
2099;SDS011;1055;48.854;9.302;2022-12-07T15:44:08;15.27;;;8.57;;
2099;SDS011;1055;48.854;9.302;2022-12-07T15:47:03;22.10;;;9.80;;
2099;SDS011;1055;48.854;9.302;2022-12-07T15:49:29;15.50;;;9.13;;
2099;SDS011;1055;48.854;9.302;2022-12-07T15:51:55;16.10;;;9.17;;
2099;SDS011;1055;48.854;9.302;2022-12-07T15:54:22;17.17;;;9.40;;
2099;SDS011;1055;48.854;9.302;2022-12-07T15:56:52;21.35;;;11.60;;
2099;SDS011;1055;48.854;9.302;2022-12-07T15:59:18;20.38;;;11.25;;
2099;SDS011;1055;48.854;9.302;2022-12-07T16:01:44;20.83;;;11.63;;
2099;SDS011;1055;48.854;9.302;2022-12-07T16:04:09;19.13;;;11.23;;
2099;SDS011;1055;48.854;9.302;2022-12-07T16:06:35;20.67;;;12.20;;
2099;SDS011;1055;48.854;9.302;2022-12-07T16:09:01;19.10;;;10.73;;
2099;SDS011;1055;48.854;9.302;2022-12-07T16:11:27;18.87;;;11.40;;
2099;SDS011;1055;48.854;9.302;2022-12-07T16:13:52;22.13;;;10.40;;
2099;SDS011;1055;48.854;9.302;2022-12-07T16:16:18;16.80;;;9.90;;
2099;SDS011;1055;48.854;9.302;2022-12-07T16:18:46;21.58;;;11.98;;
2099;SDS011;1055;48.854;9.302;2022-12-07T16:21:13;21.75;;;12.35;;
2099;SDS011;1055;48.854;9.302;2022-12-07T16:23:39;23.17;;;12.00;;
2099;SDS011;1055;48.854;9.302;2022-12-07T16:26:16;27.73;;;17.67;;
2099;SDS011;1055;48.854;9.302;2022-12-07T16:28:44;26.63;;;16.88;;
2099;SDS011;1055;48.854;9.302;2022-12-07T16:31:14;20.10;;;12.87;;
2099;SDS011;1055;48.854;9.302;2022-12-07T16:33:42;19.85;;;10.18;;
2099;SDS011;1055;48.854;9.302;2022-12-07T16:36:09;21.52;;;11.65;;
2099;SDS011;1055;48.854;9.302;2022-12-07T16:38:36;20.90;;;11.75;;
2099;SDS011;1055;48.854;9.302;2022-12-07T16:41:03;19.60;;;11.43;;
2099;SDS011;1055;48.854;9.302;2022-12-07T16:43:32;22.77;;;12.40;;
2099;SDS011;1055;48.854;9.302;2022-12-07T16:45:58;19.40;;;11.13;;
2099;SDS011;1055;48.854;9.302;2022-12-07T16:48:23;21.00;;;11.03;;
2099;SDS011;1055;48.854;9.302;2022-12-07T16:50:49;20.13;;;11.13;;
2099;SDS011;1055;48.854;9.302;2022-12-07T16:53:16;21.47;;;11.50;;
2099;SDS011;1055;48.854;9.302;2022-12-07T16:55:42;20.35;;;10.70;;
2099;SDS011;1055;48.854;9.302;2022-12-07T16:58:10;20.70;;;12.88;;
2099;SDS011;1055;48.854;9.302;2022-12-07T17:00:37;23.83;;;12.93;;
2099;SDS011;1055;48.854;9.302;2022-12-07T17:03:03;21.35;;;12.60;;
2099;SDS011;1055;48.854;9.302;2022-12-07T17:05:29;22.00;;;13.43;;
2099;SDS011;1055;48.854;9.302;2022-12-07T17:07:56;20.73;;;13.43;;
2099;SDS011;1055;48.854;9.302;2022-12-07T17:10:22;20.05;;;11.85;;
2099;SDS011;1055;48.854;9.302;2022-12-07T17:12:49;19.23;;;11.15;;
2099;SDS011;1055;48.854;9.302;2022-12-07T17:15:15;19.55;;;11.82;;
2099;SDS011;1055;48.854;9.302;2022-12-07T17:17:45;21.35;;;12.48;;
2099;SDS011;1055;48.854;9.302;2022-12-07T17:20:22;22.25;;;12.55;;
2099;SDS011;1055;48.854;9.302;2022-12-07T17:22:49;23.35;;;13.13;;